createdAt,value
2022-10-05T00:00:46.914Z,45.75
2022-10-05T00:03:20.890Z,42.97
2022-10-05T00:05:50.430Z,44.92
2022-10-05T00:08:24.558Z,37.50
2022-10-05T00:10:55.398Z,40.75
2022-10-05T00:13:28.750Z,40.13
2022-10-05T00:16:03.480Z,40.53
2022-10-05T00:18:37.347Z,39.67
2022-10-05T00:21:21.243Z,43.05
2022-10-05T00:23:59.891Z,44.00
2022-10-05T00:26:33.701Z,37.92
2022-10-05T00:29:08.311Z,42.75
2022-10-05T00:31:38.421Z,48.15
2022-10-05T00:34:10.139Z,37.30
2022-10-05T00:36:39.950Z,41.75
2022-10-05T00:39:10.216Z,39.78
2022-10-05T00:42:04.535Z,43.67
2022-10-05T00:44:40.991Z,36.60
2022-10-05T00:47:36.681Z,41.95
2022-10-05T00:50:36.032Z,35.75
2022-10-05T00:53:13.145Z,37.42
2022-10-05T00:55:56.412Z,35.35
2022-10-05T00:58:39.197Z,42.95
2022-10-05T01:01:12.696Z,39.00
2022-10-05T01:03:51.800Z,42.78
2022-10-05T01:09:12.177Z,45.70
2022-10-05T01:11:45.103Z,41.20
2022-10-05T01:14:22.024Z,46.20
2022-10-05T01:17:04.530Z,44.42
2022-10-05T01:19:52.970Z,40.97
2022-10-05T01:22:37.873Z,44.60
2022-10-05T01:25:25.142Z,41.13
2022-10-05T01:28:05.427Z,37.92
2022-10-05T01:30:45.987Z,40.28
2022-10-05T01:33:20.029Z,43.95
2022-10-05T01:36:03.455Z,42.75
2022-10-05T01:38:45.051Z,35.40
2022-10-05T01:41:25.598Z,38.22
2022-10-05T01:44:00.558Z,34.45
2022-10-05T01:46:36.954Z,36.40
2022-10-05T01:49:22.976Z,35.95
2022-10-05T01:52:06.607Z,39.53
2022-10-05T01:54:48.672Z,34.38
2022-10-05T02:00:04.944Z,36.65
2022-10-05T02:02:37.989Z,34.67
2022-10-05T02:05:13.835Z,37.53
2022-10-05T02:07:47.029Z,34.50
2022-10-05T02:10:23.508Z,32.35
2022-10-05T02:12:59.603Z,34.70
2022-10-05T02:15:39.386Z,37.80
2022-10-05T02:18:12.809Z,36.05
2022-10-05T02:20:44.173Z,38.35
2022-10-05T02:23:17.518Z,35.90
2022-10-05T02:25:49.659Z,32.80
2022-10-05T02:28:25.000Z,31.38
2022-10-05T02:31:00.185Z,35.97
2022-10-05T02:33:31.875Z,36.05
2022-10-05T02:36:03.567Z,36.85
2022-10-05T02:38:45.511Z,38.22
2022-10-05T02:41:25.148Z,37.30
2022-10-05T02:44:06.997Z,45.13
2022-10-05T02:46:45.713Z,37.83
2022-10-05T02:49:31.875Z,37.33
2022-10-05T02:52:13.543Z,34.33
2022-10-05T02:54:53.576Z,37.42
2022-10-05T02:57:32.840Z,39.13
2022-10-05T03:00:10.767Z,38.17
2022-10-05T03:02:47.296Z,35.00
2022-10-05T03:05:25.584Z,38.72
2022-10-05T03:08:02.237Z,35.15
2022-10-05T03:10:42.747Z,31.45
2022-10-05T03:13:18.088Z,31.55
2022-10-05T03:16:12.587Z,33.75
2022-10-05T03:18:56.401Z,32.80
2022-10-05T03:21:39.966Z,38.83
2022-10-05T03:24:23.225Z,34.15
2022-10-05T03:27:00.574Z,32.30
2022-10-05T03:29:37.778Z,34.65
2022-10-05T03:32:18.896Z,31.48
2022-10-05T03:34:58.418Z,28.02
2022-10-05T03:37:39.677Z,31.73
2022-10-05T03:40:17.088Z,28.95
2022-10-05T03:43:08.889Z,30.65
2022-10-05T03:45:45.730Z,29.17
2022-10-05T03:48:26.188Z,27.30
2022-10-05T03:51:13.229Z,29.55
2022-10-05T03:53:46.393Z,28.38
2022-10-05T03:56:17.509Z,32.63
2022-10-05T03:58:57.995Z,29.02
2022-10-05T04:01:34.621Z,24.42
2022-10-05T04:04:06.857Z,30.75
2022-10-05T04:06:49.469Z,26.27
2022-10-05T04:09:24.364Z,27.40
2022-10-05T04:12:00.017Z,28.00
2022-10-05T04:14:35.017Z,32.42
2022-10-05T04:17:12.163Z,31.42
2022-10-05T04:19:45.844Z,30.67
2022-10-05T04:22:19.324Z,32.75
2022-10-05T04:24:51.118Z,27.42
2022-10-05T04:27:29.615Z,28.13
2022-10-05T04:30:05.308Z,27.80
2022-10-05T04:32:39.129Z,30.30
2022-10-05T04:35:39.022Z,28.58
2022-10-05T04:38:25.849Z,29.08
2022-10-05T04:41:11.716Z,29.58
2022-10-05T04:43:51.298Z,32.22
2022-10-05T04:46:41.917Z,31.10
2022-10-05T04:49:24.909Z,32.55
2022-10-05T04:52:02.894Z,36.13
2022-10-05T04:54:47.910Z,30.40
2022-10-05T04:57:25.105Z,30.42
2022-10-05T05:00:05.830Z,31.05
2022-10-05T05:02:49.506Z,30.52
2022-10-05T05:05:27.910Z,35.10
2022-10-05T05:08:07.119Z,32.70
2022-10-05T05:11:05.080Z,33.33
2022-10-05T05:13:57.494Z,32.75
2022-10-05T05:16:34.089Z,39.83
2022-10-05T05:19:27.519Z,34.85
2022-10-05T05:22:02.276Z,35.08
2022-10-05T05:24:43.725Z,54.78
2022-10-05T05:27:28.536Z,93.22
2022-10-05T05:30:04.264Z,85.88
2022-10-05T05:32:45.284Z,72.45
2022-10-05T05:35:37.360Z,76.22
2022-10-05T05:38:25.565Z,61.47
2022-10-05T05:41:06.631Z,48.65
2022-10-05T05:43:51.310Z,51.65
2022-10-05T05:46:51.102Z,44.55
2022-10-05T05:49:27.669Z,48.80
2022-10-05T05:51:59.156Z,45.28
2022-10-05T05:54:36.965Z,47.08
2022-10-05T05:57:11.106Z,44.70
2022-10-05T05:59:54.535Z,54.78
2022-10-05T06:02:29.575Z,53.38
2022-10-05T06:05:06.188Z,48.40
2022-10-05T06:07:38.244Z,45.28
2022-10-05T06:10:26.446Z,48.28
2022-10-05T06:13:01.700Z,51.33
2022-10-05T06:15:37.025Z,69.45
2022-10-05T06:18:14.879Z,67.53
2022-10-05T06:20:49.603Z,70.85
2022-10-05T06:23:22.400Z,61.80
2022-10-05T06:26:10.853Z,71.30
2022-10-05T06:28:51.240Z,67.68
2022-10-05T06:31:32.110Z,75.22
2022-10-05T06:34:14.840Z,66.55
2022-10-05T06:36:51.172Z,66.20
2022-10-05T06:39:37.855Z,64.47
2022-10-05T06:42:28.635Z,61.33
2022-10-05T06:45:05.088Z,62.70
2022-10-05T06:47:41.858Z,60.20
2022-10-05T06:50:19.138Z,65.93
2022-10-05T06:53:09.068Z,61.90
2022-10-05T06:55:49.394Z,61.63
2022-10-05T06:58:43.872Z,52.70
2022-10-05T07:01:17.285Z,52.50
2022-10-05T07:04:05.765Z,46.53
2022-10-05T07:06:42.916Z,41.55
2022-10-05T07:09:33.133Z,40.65
2022-10-05T07:12:32.665Z,39.25
2022-10-05T07:15:16.462Z,37.97
2022-10-05T07:17:57.540Z,39.10
2022-10-05T07:20:33.188Z,32.42
2022-10-05T07:23:19.843Z,31.58
2022-10-05T07:25:53.041Z,33.92
2022-10-05T07:28:33.311Z,28.15
2022-10-05T07:33:46.565Z,25.05
2022-10-05T07:36:41.560Z,25.02
2022-10-05T07:39:16.441Z,24.63
2022-10-05T07:41:47.972Z,24.95
2022-10-05T07:44:24.718Z,22.60
2022-10-05T07:46:57.816Z,27.17
2022-10-05T07:49:37.067Z,21.27
2022-10-05T07:52:15.067Z,23.13
2022-10-05T07:54:57.861Z,22.42
2022-10-05T07:57:39.168Z,23.70
2022-10-05T08:00:14.776Z,22.00
2022-10-05T08:02:50.538Z,21.50
2022-10-05T08:05:25.363Z,17.65
2022-10-05T08:08:05.851Z,20.25
2022-10-05T08:10:42.945Z,20.77
2022-10-05T08:13:21.696Z,21.42
2022-10-05T08:15:55.503Z,20.10
2022-10-05T08:18:51.663Z,21.77
2022-10-05T08:21:26.171Z,21.75
2022-10-05T08:24:01.597Z,29.38
2022-10-05T08:26:46.444Z,110.28
2022-10-05T08:29:23.180Z,27.08
2022-10-05T08:32:02.005Z,20.33
2022-10-05T08:34:42.377Z,80.38
2022-10-05T08:37:18.692Z,28.02
2022-10-05T08:39:55.841Z,16.60
2022-10-05T08:42:55.994Z,20.27
2022-10-05T08:45:55.285Z,20.77
2022-10-05T08:48:59.015Z,16.63
2022-10-05T08:51:54.203Z,23.35
2022-10-05T08:54:37.570Z,14.85
2022-10-05T08:57:38.772Z,19.55
2022-10-05T09:00:16.179Z,18.63
2022-10-05T09:03:09.602Z,17.10
2022-10-05T09:06:02.476Z,16.33
2022-10-05T09:08:48.078Z,48.33
2022-10-05T09:11:28.066Z,23.17
2022-10-05T09:14:15.485Z,17.20
2022-10-05T09:16:54.404Z,19.10
2022-10-05T09:19:49.328Z,20.27
2022-10-05T09:22:38.418Z,22.23
2022-10-05T09:25:23.796Z,18.35
2022-10-05T09:27:58.859Z,28.75
2022-10-05T09:30:41.334Z,24.67
2022-10-05T09:33:56.131Z,20.80
2022-10-05T09:37:09.041Z,18.25
2022-10-05T09:40:15.788Z,26.35
2022-10-05T09:43:12.305Z,19.02
2022-10-05T09:46:11.759Z,13.38
2022-10-05T09:49:11.200Z,18.48
2022-10-05T09:52:06.369Z,14.32
2022-10-05T09:55:14.297Z,14.32
2022-10-05T09:58:20.555Z,14.40
2022-10-05T10:01:09.090Z,18.42
2022-10-05T10:04:16.964Z,14.75
2022-10-05T10:07:23.749Z,15.35
2022-10-05T10:10:33.743Z,13.40
2022-10-05T10:13:23.490Z,10.82
2022-10-05T10:16:14.542Z,10.77
2022-10-05T10:19:16.504Z,20.10
2022-10-05T10:24:55.849Z,11.27
2022-10-05T10:27:43.313Z,12.10
2022-10-05T10:30:36.333Z,14.55
2022-10-05T10:33:25.844Z,10.82
2022-10-05T10:36:06.013Z,11.02
2022-10-05T10:38:55.748Z,10.15
2022-10-05T10:41:52.010Z,11.40
2022-10-05T10:44:59.512Z,14.75
2022-10-05T10:47:53.365Z,12.43
2022-10-05T10:50:50.731Z,11.20
2022-10-05T10:53:32.366Z,9.95
2022-10-05T10:56:19.779Z,10.07
2022-10-05T10:59:26.634Z,12.13
2022-10-05T11:02:28.560Z,16.40
2022-10-05T11:05:35.899Z,11.93
2022-10-05T11:08:27.754Z,11.23
2022-10-05T11:11:36.303Z,12.23
2022-10-05T11:14:31.512Z,13.07
2022-10-05T11:17:24.963Z,12.10
2022-10-05T11:20:09.391Z,11.18
2022-10-05T11:22:55.575Z,16.55
2022-10-05T11:25:51.218Z,15.00
2022-10-05T11:28:56.215Z,13.98
2022-10-05T11:31:56.185Z,12.00
2022-10-05T11:34:49.552Z,14.27
2022-10-05T11:37:54.020Z,12.38
2022-10-05T11:40:58.494Z,12.95
2022-10-05T11:44:06.983Z,18.58
2022-10-05T11:46:46.348Z,20.10
2022-10-05T11:49:33.621Z,14.07
2022-10-05T11:52:12.547Z,20.40
2022-10-05T11:55:10.821Z,18.05
2022-10-05T11:57:47.561Z,16.98
2022-10-05T12:00:22.179Z,19.23
2022-10-05T12:03:19.576Z,20.98
2022-10-05T12:06:03.731Z,23.65
2022-10-05T12:08:41.747Z,14.30
2022-10-05T12:11:27.590Z,16.13
2022-10-05T12:14:02.025Z,12.95
2022-10-05T12:16:40.361Z,15.25
2022-10-05T12:19:15.651Z,15.10
2022-10-05T12:21:49.446Z,14.77
2022-10-05T12:24:26.722Z,15.35
2022-10-05T12:27:03.468Z,16.40
2022-10-05T12:29:40.195Z,17.80
2022-10-05T12:32:17.644Z,15.95
2022-10-05T12:35:01.473Z,17.40
2022-10-05T12:37:46.612Z,15.45
2022-10-05T12:40:23.811Z,16.52
2022-10-05T12:43:03.375Z,14.30
2022-10-05T12:45:46.322Z,14.80
2022-10-05T12:48:37.905Z,15.50
2022-10-05T12:51:15.201Z,13.05
2022-10-05T12:53:55.385Z,14.88
2022-10-05T12:56:35.258Z,14.57
2022-10-05T12:59:14.500Z,12.48
2022-10-05T13:01:48.991Z,14.32
2022-10-05T13:04:28.891Z,17.35
2022-10-05T13:07:38.553Z,14.65
2022-10-05T13:10:25.916Z,13.25
2022-10-05T13:13:04.602Z,17.77
2022-10-05T13:15:38.661Z,12.90
2022-10-05T13:18:20.195Z,12.93
2022-10-05T13:21:05.466Z,16.67
2022-10-05T13:23:47.747Z,14.13
2022-10-05T13:26:30.016Z,14.45
2022-10-05T13:29:05.516Z,14.20
2022-10-05T13:31:40.604Z,11.63
2022-10-05T13:34:22.309Z,13.23
2022-10-05T13:37:07.101Z,13.55
2022-10-05T13:40:01.312Z,15.07
2022-10-05T13:42:37.193Z,11.20
2022-10-05T13:45:22.136Z,11.63
2022-10-05T13:48:03.296Z,11.13
2022-10-05T13:50:36.756Z,10.73
2022-10-05T13:53:16.373Z,11.45
2022-10-05T13:55:48.314Z,12.02
2022-10-05T13:58:32.703Z,13.10
2022-10-05T14:01:05.034Z,12.27
2022-10-05T14:03:37.415Z,12.68
2022-10-05T14:06:15.711Z,9.68
2022-10-05T14:08:52.368Z,12.13
2022-10-05T14:11:28.725Z,15.25
2022-10-05T14:14:13.933Z,16.88
2022-10-05T14:16:51.133Z,12.75
2022-10-05T14:19:28.314Z,10.77
2022-10-05T14:22:02.493Z,11.70
2022-10-05T14:24:45.033Z,11.48
2022-10-05T14:27:23.458Z,11.98
2022-10-05T14:29:59.900Z,10.88
2022-10-05T14:32:32.694Z,10.18
2022-10-05T14:35:17.470Z,10.75
2022-10-05T14:37:51.166Z,11.15
2022-10-05T14:40:29.715Z,13.95
2022-10-05T14:43:01.780Z,10.65
2022-10-05T14:45:35.876Z,11.75
2022-10-05T14:48:12.377Z,11.48
2022-10-05T14:51:03.502Z,17.63
2022-10-05T14:53:43.677Z,33.08
2022-10-05T14:56:32.772Z,11.52
2022-10-05T14:59:30.708Z,12.68
2022-10-05T15:02:13.775Z,11.27
2022-10-05T15:04:45.332Z,14.07
2022-10-05T15:07:25.220Z,12.43
2022-10-05T15:10:05.907Z,11.47
2022-10-05T15:12:49.620Z,13.05
2022-10-05T15:15:32.799Z,15.48
2022-10-05T15:18:15.146Z,16.58
2022-10-05T15:23:24.981Z,10.15
2022-10-05T15:26:04.416Z,23.20
2022-10-05T15:28:48.500Z,10.98
2022-10-05T15:31:27.772Z,11.90
2022-10-05T15:34:04.317Z,11.68
2022-10-05T15:36:43.292Z,10.30
2022-10-05T15:39:27.440Z,12.27
2022-10-05T15:42:00.787Z,11.55
2022-10-05T15:44:46.935Z,14.30
2022-10-05T15:47:25.803Z,20.02
2022-10-05T15:50:03.518Z,14.75
2022-10-05T15:52:40.022Z,15.35
2022-10-05T15:55:28.835Z,14.85
2022-10-05T15:58:12.989Z,14.63
2022-10-05T16:00:49.929Z,12.07
2022-10-05T16:03:27.274Z,19.05
2022-10-05T16:06:20.976Z,18.55
2022-10-05T16:11:41.116Z,14.93
2022-10-05T16:14:35.450Z,13.32
2022-10-05T16:17:36.216Z,11.80
2022-10-05T16:20:25.806Z,12.93
2022-10-05T16:22:59.984Z,15.10
2022-10-05T16:25:40.648Z,17.67
2022-10-05T16:28:26.157Z,15.88
2022-10-05T16:31:02.345Z,14.10
2022-10-05T16:33:58.816Z,15.50
2022-10-05T16:37:04.247Z,13.98
2022-10-05T16:39:50.147Z,14.27
2022-10-05T16:42:50.071Z,15.50
2022-10-05T16:45:44.686Z,14.35
2022-10-05T16:48:21.083Z,16.00
2022-10-05T16:51:04.892Z,15.55
2022-10-05T16:53:39.632Z,21.00
2022-10-05T16:56:12.808Z,14.25
2022-10-05T16:59:04.212Z,19.95
2022-10-05T17:01:49.795Z,17.00
2022-10-05T17:04:32.886Z,14.18
2022-10-05T17:07:21.801Z,16.63
2022-10-05T17:10:09.032Z,19.42
2022-10-05T17:12:52.026Z,16.48
2022-10-05T17:15:33.664Z,19.52
2022-10-05T17:18:17.968Z,18.88
2022-10-05T17:20:57.754Z,18.70
2022-10-05T17:23:56.944Z,15.98
2022-10-05T17:26:48.325Z,15.77
2022-10-05T17:29:28.119Z,15.67
2022-10-05T17:32:09.718Z,17.35
2022-10-05T17:34:42.540Z,16.02
2022-10-05T17:39:56.271Z,17.33
2022-10-05T17:42:58.159Z,21.27
2022-10-05T17:45:53.606Z,22.27
2022-10-05T17:48:46.495Z,19.92
2022-10-05T17:52:07.667Z,24.83
2022-10-05T17:55:30.134Z,23.40
2022-10-05T17:58:07.333Z,24.80
2022-10-05T18:01:07.255Z,25.98
2022-10-05T18:03:41.346Z,25.92
2022-10-05T18:06:35.677Z,27.40
2022-10-05T18:09:34.674Z,24.95
2022-10-05T18:12:40.853Z,26.10
2022-10-05T18:15:47.446Z,26.50
2022-10-05T18:18:57.392Z,28.33
2022-10-05T18:22:00.342Z,30.35
2022-10-05T18:24:43.404Z,31.10
2022-10-05T18:27:32.007Z,28.50
2022-10-05T18:30:18.133Z,28.98
2022-10-05T18:33:10.304Z,34.55
2022-10-05T18:35:51.172Z,29.50
2022-10-05T18:38:32.609Z,28.38
2022-10-05T18:41:08.821Z,29.63
2022-10-05T18:43:43.014Z,32.20
2022-10-05T18:46:28.039Z,33.55
2022-10-05T18:49:09.238Z,31.55
2022-10-05T18:51:51.553Z,34.08
2022-10-05T18:54:49.383Z,31.58
2022-10-05T18:57:50.584Z,29.98
2022-10-05T19:00:22.005Z,32.28
2022-10-05T19:02:54.087Z,29.30
2022-10-05T19:05:47.857Z,32.45
2022-10-05T19:08:30.844Z,39.38
2022-10-05T19:11:07.613Z,33.35
2022-10-05T19:13:44.745Z,35.55
2022-10-05T19:16:29.960Z,31.92
2022-10-05T19:19:30.885Z,32.58
2022-10-05T19:22:11.473Z,28.98
2022-10-05T19:25:06.853Z,31.65
2022-10-05T19:27:44.676Z,33.70
2022-10-05T19:30:20.098Z,30.73
2022-10-05T19:33:05.747Z,32.08
2022-10-05T19:35:51.484Z,29.17
2022-10-05T19:38:30.440Z,32.05
2022-10-05T19:41:13.179Z,32.67
2022-10-05T19:44:10.284Z,30.98
2022-10-05T19:46:54.034Z,29.00
2022-10-05T19:49:44.421Z,30.13
2022-10-05T19:52:15.327Z,30.92
2022-10-05T19:54:43.905Z,29.67
2022-10-05T19:57:18.529Z,31.33
2022-10-05T19:59:58.243Z,33.05
2022-10-05T20:02:28.522Z,28.38
2022-10-05T20:05:09.733Z,34.53
2022-10-05T20:07:39.800Z,28.95
2022-10-05T20:10:30.515Z,31.67
2022-10-05T20:13:05.253Z,28.35
2022-10-05T20:15:52.992Z,30.23
2022-10-05T20:19:01.095Z,27.70
2022-10-05T20:21:50.406Z,30.70
2022-10-05T20:24:19.987Z,29.23
2022-10-05T20:27:05.262Z,25.67
2022-10-05T20:29:37.568Z,28.25
2022-10-05T20:32:09.096Z,32.50
2022-10-05T20:34:41.822Z,28.13
2022-10-05T20:37:17.450Z,32.55
2022-10-05T20:39:48.111Z,25.25
2022-10-05T20:42:16.940Z,29.52
2022-10-05T20:44:47.241Z,28.48
2022-10-05T20:47:15.587Z,27.83
2022-10-05T20:49:45.850Z,28.67
2022-10-05T20:52:18.994Z,28.73
2022-10-05T20:54:48.319Z,27.65
2022-10-05T20:57:16.759Z,27.45
2022-10-05T20:59:46.563Z,28.80
2022-10-05T21:02:16.636Z,27.27
2022-10-05T21:04:47.774Z,28.83
2022-10-05T21:07:20.911Z,29.73
2022-10-05T21:09:49.734Z,28.08
2022-10-05T21:12:20.274Z,24.75
2022-10-05T21:14:52.894Z,27.50
2022-10-05T21:17:25.797Z,27.42
2022-10-05T21:19:59.899Z,27.60
2022-10-05T21:22:28.982Z,28.77
2022-10-05T21:24:57.466Z,28.00
2022-10-05T21:27:25.800Z,27.98
2022-10-05T21:30:00.864Z,31.05
2022-10-05T21:32:29.289Z,27.80
2022-10-05T21:34:57.947Z,27.63
2022-10-05T21:37:26.718Z,31.55
2022-10-05T21:39:55.506Z,25.02
2022-10-05T21:42:25.288Z,26.95
2022-10-05T21:44:53.461Z,26.88
2022-10-05T21:47:24.432Z,26.38
2022-10-05T21:49:55.008Z,26.52
2022-10-05T21:52:23.459Z,30.52
2022-10-05T21:54:57.895Z,30.00
2022-10-05T21:57:26.375Z,25.52
2022-10-05T21:59:55.466Z,29.20
2022-10-05T22:02:28.776Z,29.08
2022-10-05T22:04:58.287Z,27.50
2022-10-05T22:07:26.675Z,24.38
2022-10-05T22:09:55.469Z,26.98
2022-10-05T22:12:24.830Z,26.30
2022-10-05T22:14:53.025Z,24.38
2022-10-05T22:17:25.546Z,28.48
2022-10-05T22:19:58.185Z,24.65
2022-10-05T22:22:31.511Z,26.20
2022-10-05T22:24:59.980Z,23.40
2022-10-05T22:27:32.350Z,23.45
2022-10-05T22:30:08.682Z,24.98
2022-10-05T22:32:37.576Z,21.95
2022-10-05T22:35:11.492Z,21.98
2022-10-05T22:37:44.283Z,25.65
2022-10-05T22:40:13.566Z,22.75
2022-10-05T22:42:42.554Z,21.55
2022-10-05T22:45:15.528Z,24.08
2022-10-05T22:47:43.998Z,23.30
2022-10-05T22:50:13.957Z,24.85
2022-10-05T22:52:43.529Z,24.13
2022-10-05T22:55:12.048Z,23.23
2022-10-05T22:57:41.217Z,24.80
2022-10-05T23:00:13.513Z,24.25
2022-10-05T23:02:44.015Z,22.77
2022-10-05T23:05:14.795Z,21.63
2022-10-05T23:07:47.949Z,20.83
2022-10-05T23:10:26.570Z,23.55
2022-10-05T23:13:00.616Z,20.50
2022-10-05T23:15:30.870Z,24.73
2022-10-05T23:18:01.691Z,24.25
2022-10-05T23:20:31.989Z,26.08
2022-10-05T23:23:00.982Z,23.58
2022-10-05T23:25:29.282Z,22.45
2022-10-05T23:27:58.920Z,23.58
2022-10-05T23:30:27.379Z,25.63
2022-10-05T23:32:56.783Z,22.48
2022-10-05T23:35:26.210Z,21.88
2022-10-05T23:37:55.612Z,23.38
2022-10-05T23:40:24.499Z,23.75
2022-10-05T23:42:56.129Z,22.50
2022-10-05T23:45:24.697Z,22.17
2022-10-05T23:48:01.011Z,21.77
2022-10-05T23:50:30.297Z,21.98
2022-10-05T23:53:00.217Z,23.05
2022-10-05T23:55:32.107Z,25.38
2022-10-05T23:58:04.622Z,23.95
